Terminal Aerodrome Forecast
Issued by NWS Binghamton, NY

Home | Current Version | Previous Version | Text Only | Print | Product List | Glossary On
Versions: 1 2 3 4 5 6 7 8 9 10 11 12 13 14 15 16 17 18 19 20 21 22
000
FTUS41 KBGM 282334
TAFSYR
TAF
KSYR 282334Z 2900/2924 12010KT P6SM BKN060
     FM290400 13010KT P6SM -SHRA OVC040
     FM290800 13010KT 5SM -RA BR OVC015
     FM291600 17010KT P6SM BKN025 OVC050
     FM292000 24008KT P6SM BKN050=

USA.gov is the U.S. government's official web portal to all federal, state and local government web resources and services.